KGCC

Gillette-Campbell County Airport

Gillette, Wyoming, USA
METAR KGCC 141653Z AUTO VRB06KT 10SM CLR 04/M07 A3017 RMK AO2 SLP233 T00441067
Observed Flight Rules
Dec-14 @ 16:53 UTC (19 minutes ago) Visual Flight Rules
Wind Visibility Clouds
Variable at 6 knots 10 miles
  • Clear skies
Temperatures Readings
Current 4°C / 39°F
Dewpoint -7°C / 19°F
Humidity 45%
Altimeter 30.17" Hg
Pressure 1023.3 hPa
Elevation 1320
METAR KGCC 141653Z AUTO VRB06KT 10SM CLR 04/M07 A3017 RMK AO2 SLP233 T00441067
Observed Flight Rules
Dec-14 @ 16:53 UTC
(19 minutes ago)
VFR
Wind Visibility
Variable at 6 knots 10 miles
Clouds
  • Clear skies
Temperature Dewpoint
4°C / 39°F -7°C / 19°F
Humidity Altimeter Pressure
45% 30.17" Hg 1023.3 hPa